Logo
Newest Metar:
CYXE 201800Z 23008KT 15SM SCT075 BKN150 18/08 A2996 RMK AC3AC3 SLP160 DENSITY ALT 2400FT

Last 10 Metars:
CYXE 201741Z 23010KT 15SM SCT075 OVC150 16/08 A2998 RMK AC4AC4 SLP165 DENSITY ALT 2200FT
CYXE 201700Z 24011KT 15SM BKN075 OVC150 14/08 A2999 RMK AC5AC3 INTMT -RA SLP172 DENSITY ALT 1900FT
CYXE 201618Z 25007KT 15SM -RA BKN065 BKN140 14/07 A2999 RMK SC5AC2 SLP168 DENSITY ALT 1900FT
CYXE 201600Z 23011KT 15SM BKN070 BKN150 14/07 A2999 RMK AC5AC2 SLP169 DENSITY ALT 1900FT
CYXE 201500Z 24011KT 15SM BKN080 BKN150 BKN300 14/06 A2998 RMK AC5AC1CI1 SLP165 DENSITY ALT 1900FT
CYXE 201400Z 23008KT 15SM BKN140 BKN300 12/06 A2997 RMK AC6CI1 SLP160
CYXE 201300Z 21008KT 15SM BKN130 BKN300 09/06 A2996 RMK AC6CI1 SLP158
CYXE 201200Z 24006KT 15SM SCT130 BKN280 06/04 A2996 RMK AC4CI3 SLP160
CYXE 201100Z 25006KT 15SM FEW120 05/04 A2996 RMK AC1 SLP159
CYXE 201000Z 24007KT 15SM SKC 05/04 A2995 RMK SLP156

Click here for Regina (YQR) International Weather